Saturday, January 20, 2018, 3:01 PM GMT
Back to Local

CYQM, Moncton, N. B.

Location: , , Canada Lat: 46.117
Local Time: 3:01 PM GMT (15:01 GMT) Lon: -64.683
Time Zone: GMT Elev: 232 ft

Show me the last for .
Show Decoded

2018-01-20 14:43 METAR CYQM 201443Z 17008KT 5SM -SN FEW003 BKN010 BKN020 OVC220 M01/M01 A2943 RMK
                 SF1SF5SC1CI1 PRESFR SLP972 =
2018-01-20 14:35 METAR CYQM 201435Z 18008KT 3SM -SN SCT002 BKN008 OVC022 M01/M01 A2944 RMK
                 SF3SF4SC1 PRESFR SLP974 =
2018-01-20 14:18 METAR CYQM 201418Z 20010KT 1 1/2SM -SN DRSN OVC005 M01/M01 A2945 RMK SF8 PRESRR
                 SLP979 =
2018-01-20 14:04 METAR CYQM 201404Z 17010KT 1SM R06/4000VP6000FT/N R29/3500VP6000FT/D -SN DRSN
                 BKN005 VV012 M01/M02 A2943 RMK SF6SN2 PRESFR SLP973 =
2018-01-20 14:02 METAR CYQM 201402Z 17011KT 3/4SM R06/4000VP6000FT/D R29/3500VP6000FT/D -SN DRSN
                 BKN004 VV008 M01/M02 A2943 RMK SF5SN3 PRESFR SLP972 =
2018-01-20 14:00 METAR CYQM 201400Z 17012KT 5/8SM R06/4000VP6000FT/D R29/4000VP6000FT/D -SN DRSN
                 BKN004 VV007 M01/M02 A2943 RMK SF5SN3 /S01/ PRESFR SLP972 =
2018-01-20 13:41 METAR CYQM 201341Z 18010KT 1SM R06/6000FT/U R29/5000VP6000FT/U -SN DRSN BKN004
                 VV012 M01/M02 A2946 RMK SF5SN3 SLP983 =
2018-01-20 13:25 METAR CYQM 201325Z CCA 19011KT 1SM R06/6000FT/U R29/6000FT/U -SN DRSN BKN005
                 OVC010 M01/M02 A2947 RMK SF6SF2 PRESFR SLP986 =
2018-01-20 13:18 METAR CYQM 201318Z 19007KT 5/8SM R06/P6000FT/D R29/5500VP6000FT/D -SN DRSN
                 BKN004 VV007 M02/M02 A2948 RMK SF5SN3 PRESFR SLP987 =
2018-01-20 13:07 METAR CYQM 201307Z 20009KT 1 1/4SM -SN DRSN BKN004 VV010 M02/M03 A2950 RMK
                 SF6SN2 SLP994 =
2018-01-20 13:00 METAR CYQM 201300Z 20011KT 1 3/4SM -SN DRSN BKN007 VV014 M02/M03 A2950 RMK
                 SF6SN2 SLP996 =
2018-01-20 12:42 METAR CYQM 201242Z 19012KT 2SM -SN OVC009 M02/M03 A2951 RMK SF8 SLP000 =
2018-01-20 12:33 METAR CYQM 201233Z 18013G18KT 2SM -SN OVC011 M02/M03 A2951 RMK SC8 SLP999 =
2018-01-20 12:00 METAR CYQM 201200Z 16016G22KT 5SM -SN OVC013 M03/M04 A2952 RMK SC8 PRESFR SLP003
                 =
2018-01-20 11:53 METAR CYQM 201153Z 16015KT 8SM -SN OVC013 M03/M04 A2953 RMK SC8 PRESFR SLP005 =
2018-01-20 11:29 METAR CYQM 201129Z 17016KT 10SM -SN FEW005 OVC020 M03/M04 A2956 RMK SF2SC6
                 SLP016 =
2018-01-20 11:25 METAR CYQM 201125Z 16016KT 8SM -FZDZ -SN BKN005 OVC015 M03/M04 A2956 RMK SF5SC3
                 SLP015 =
2018-01-20 11:00 METAR CYQM 201100Z 16010KT 6SM -FZDZ -SN BR OVC004 M04/M05 A2958 RMK SF8 PRESFR
                 SLP023 =
2018-01-20 10:33 METAR CYQM 201033Z 17011G16KT 8SM -FZDZ -SN BKN005 OVC014 M04/M05 A2962 RMK
                 SF5SC3 SLP035 =
2018-01-20 10:25 METAR CYQM 201025Z 17012KT 8SM -FZDZ BKN004 OVC015 M05/M05 A2962 RMK SF5SC3
                 PRESFR SLP037 =
2018-01-20 10:08 METAR CYQM 201008Z 17011KT 8SM -FZDZ -SN BKN005 OVC015 M05/M06 A2965 RMK SF5SC3
                 SLP046 =
2018-01-20 10:00 METAR CYQM 201000Z 17012KT 5SM -SN OVC011 M05/M05 A2965 RMK SC8 SLP048 =
2018-01-20 09:00 METAR CYQM 200900Z 17011KT 6SM -SN OVC021 M05/M06 A2967 RMK SC8 SLP054 =
2018-01-20 08:00 METAR CYQM 200800Z 16009KT 15SM -SN OVC027 M06/M07 A2972 RMK SC8 SLP069 =
2018-01-20 07:00 METAR CYQM 200700Z 16007KT 15SM OVC033 M06/M08 A2975 RMK SC8 SLP082 =
2018-01-20 06:00 METAR CYQM 200600Z 18005KT 15SM OVC042 M08/M10 A2976 RMK SC8 SLP085 =
2018-01-20 05:00 METAR CYQM 200500Z 18006KT 15SM OVC063 M08/M10 A2980 RMK SC8 SLP097 =
2018-01-20 04:00 METAR CYQM 200400Z 19006KT 15SM OVC073 M09/M11 A2983 RMK AC8 SLP107 =
2018-01-20 03:00 METAR CYQM 200300Z 20008KT 15SM BKN079 M11/M12 A2984 RMK AC5 SLP111 =
2018-01-20 02:00 METAR CYQM 200200Z 19005KT 15SM FEW063 M10/M11 A2983 RMK SC1 SLP108 =
2018-01-20 01:00 METAR CYQM 200100Z 22006KT 15SM SCT064 M10/M11 A2984 RMK SC3 SLP111 =
2018-01-20 00:00 METAR CYQM 200000Z 19005KT 15SM OVC064 M09/M11 A2984 RMK SC8 SLP112 =
2018-01-19 23:00 METAR CYQM 192300Z 16004KT 15SM OVC064 M09/M11 A2985 RMK SC8 SLP114 =
2018-01-19 22:00 METAR CYQM 192200Z 21004KT 15SM SCT021 BKN068 M09/M11 A2985 RMK SC4AC1 SLP115 =
2018-01-19 21:00 METAR CYQM 192100Z 25004KT 15SM FEW021 SCT260 M08/M12 A2984 RMK SC2CI1 SLP113 =
2018-01-19 20:00 METAR CYQM 192000Z 33004KT 15SM BKN018 M08/M11 A2985 RMK SC7 SLP114 =
2018-01-19 19:00 METAR CYQM 191900Z 27010KT 15SM BKN017 M08/M12 A2983 RMK SC7 SLP109 =
2018-01-19 18:00 METAR CYQM 191800Z 28009KT 15SM BKN020 BKN260 M08/M12 A2983 RMK SC6CI1 SLP107 =
2018-01-19 17:00 METAR CYQM 191700Z 28007KT 15SM FEW018 SCT150 BKN260 M09/M14 A2984 RMK SC1AC2CI3
                 SLP111 =
2018-01-19 16:00 METAR CYQM 191600Z 30005KT 15SM FEW025 SCT150 BKN260 M09/M13 A2985 RMK SC1AC2CI4
                 SLP114 =

Support USWX by starting your Amazon purchase here.